sensor_id;sensor_type;location;lat;lon;timestamp;temperature;humidity
9118;DHT22;4594;50.994;7.126;2023-07-20T00:01:28;20.20;33.40
9118;DHT22;4594;50.994;7.126;2023-07-20T00:03:54;20.20;33.50
9118;DHT22;4594;50.994;7.126;2023-07-20T00:06:24;20.20;33.60
9118;DHT22;4594;50.994;7.126;2023-07-20T00:08:53;20.10;33.70
9118;DHT22;4594;50.994;7.126;2023-07-20T00:11:20;20.10;33.80
9118;DHT22;4594;50.994;7.126;2023-07-20T00:13:47;20.00;33.70
9118;DHT22;4594;50.994;7.126;2023-07-20T00:16:13;20.00;33.70
9118;DHT22;4594;50.994;7.126;2023-07-20T00:18:38;20.00;33.80
9118;DHT22;4594;50.994;7.126;2023-07-20T00:21:04;19.90;33.70
9118;DHT22;4594;50.994;7.126;2023-07-20T00:23:30;19.90;33.80
9118;DHT22;4594;50.994;7.126;2023-07-20T00:25:55;19.80;33.70
9118;DHT22;4594;50.994;7.126;2023-07-20T00:28:21;19.80;33.80
9118;DHT22;4594;50.994;7.126;2023-07-20T00:30:47;19.80;33.90
9118;DHT22;4594;50.994;7.126;2023-07-20T00:33:12;19.80;33.90
9118;DHT22;4594;50.994;7.126;2023-07-20T00:35:42;19.60;33.80
9118;DHT22;4594;50.994;7.126;2023-07-20T00:38:07;19.70;33.90
9118;DHT22;4594;50.994;7.126;2023-07-20T00:40:40;19.70;34.00
9118;DHT22;4594;50.994;7.126;2023-07-20T00:43:06;19.60;34.20
9118;DHT22;4594;50.994;7.126;2023-07-20T00:45:33;19.60;34.00
9118;DHT22;4594;50.994;7.126;2023-07-20T00:48:01;19.60;34.10
9118;DHT22;4594;50.994;7.126;2023-07-20T00:50:28;19.60;34.20
9118;DHT22;4594;50.994;7.126;2023-07-20T00:52:57;19.60;34.20
9118;DHT22;4594;50.994;7.126;2023-07-20T00:55:24;19.60;34.50
9118;DHT22;4594;50.994;7.126;2023-07-20T00:57:51;19.60;34.40
9118;DHT22;4594;50.994;7.126;2023-07-20T01:00:17;19.60;34.40
9118;DHT22;4594;50.994;7.126;2023-07-20T01:02:43;19.60;34.40
9118;DHT22;4594;50.994;7.126;2023-07-20T01:05:09;19.60;34.40
9118;DHT22;4594;50.994;7.126;2023-07-20T01:07:50;19.60;34.50
9118;DHT22;4594;50.994;7.126;2023-07-20T01:13:23;19.60;34.50
9118;DHT22;4594;50.994;7.126;2023-07-20T01:15:56;19.60;34.50
9118;DHT22;4594;50.994;7.126;2023-07-20T01:18:23;19.60;34.60
9118;DHT22;4594;50.994;7.126;2023-07-20T01:20:49;19.60;34.60
9118;DHT22;4594;50.994;7.126;2023-07-20T01:26:46;19.60;34.90
9118;DHT22;4594;50.994;7.126;2023-07-20T01:32:23;19.60;35.00
9118;DHT22;4594;50.994;7.126;2023-07-20T01:34:52;19.60;34.90
9118;DHT22;4594;50.994;7.126;2023-07-20T01:37:21;19.60;34.90
9118;DHT22;4594;50.994;7.126;2023-07-20T01:39:52;19.70;34.90
9118;DHT22;4594;50.994;7.126;2023-07-20T01:42:22;19.60;34.90
9118;DHT22;4594;50.994;7.126;2023-07-20T01:44:51;19.60;34.90
9118;DHT22;4594;50.994;7.126;2023-07-20T01:47:18;19.70;34.90
9118;DHT22;4594;50.994;7.126;2023-07-20T01:49:43;19.60;34.90
9118;DHT22;4594;50.994;7.126;2023-07-20T01:52:09;19.60;34.90
9118;DHT22;4594;50.994;7.126;2023-07-20T01:54:35;19.60;34.90
9118;DHT22;4594;50.994;7.126;2023-07-20T01:57:00;19.50;34.90
9118;DHT22;4594;50.994;7.126;2023-07-20T01:59:26;19.50;34.90
9118;DHT22;4594;50.994;7.126;2023-07-20T02:01:52;19.50;35.00
9118;DHT22;4594;50.994;7.126;2023-07-20T02:04:18;19.50;35.10
9118;DHT22;4594;50.994;7.126;2023-07-20T02:06:43;19.50;35.10
9118;DHT22;4594;50.994;7.126;2023-07-20T02:09:09;19.50;35.20
9118;DHT22;4594;50.994;7.126;2023-07-20T02:11:35;19.50;35.60
9118;DHT22;4594;50.994;7.126;2023-07-20T02:14:00;19.50;35.40
9118;DHT22;4594;50.994;7.126;2023-07-20T02:16:26;19.50;35.50
9118;DHT22;4594;50.994;7.126;2023-07-20T02:18:52;19.60;35.70
9118;DHT22;4594;50.994;7.126;2023-07-20T02:21:18;19.60;35.70
9118;DHT22;4594;50.994;7.126;2023-07-20T02:23:44;19.70;36.00
9118;DHT22;4594;50.994;7.126;2023-07-20T02:26:10;19.60;35.90
9118;DHT22;4594;50.994;7.126;2023-07-20T02:28:35;19.70;36.10
9118;DHT22;4594;50.994;7.126;2023-07-20T02:31:01;19.80;36.30
9118;DHT22;4594;50.994;7.126;2023-07-20T02:33:27;19.70;36.30
9118;DHT22;4594;50.994;7.126;2023-07-20T02:35:52;19.80;36.30
9118;DHT22;4594;50.994;7.126;2023-07-20T02:38:18;19.90;36.40
9118;DHT22;4594;50.994;7.126;2023-07-20T02:40:44;19.90;36.40
9118;DHT22;4594;50.994;7.126;2023-07-20T02:43:09;19.80;36.30
9118;DHT22;4594;50.994;7.126;2023-07-20T02:45:35;19.80;36.30
9118;DHT22;4594;50.994;7.126;2023-07-20T02:48:05;19.90;36.40
9118;DHT22;4594;50.994;7.126;2023-07-20T02:50:33;19.70;36.20
9118;DHT22;4594;50.994;7.126;2023-07-20T02:53:00;19.80;36.30
9118;DHT22;4594;50.994;7.126;2023-07-20T02:55:25;19.70;36.30
9118;DHT22;4594;50.994;7.126;2023-07-20T02:57:51;19.70;36.30
9118;DHT22;4594;50.994;7.126;2023-07-20T03:00:17;19.70;36.40
9118;DHT22;4594;50.994;7.126;2023-07-20T03:02:45;19.60;36.40
9118;DHT22;4594;50.994;7.126;2023-07-20T03:05:15;19.50;36.40
9118;DHT22;4594;50.994;7.126;2023-07-20T03:07:42;19.60;36.50
9118;DHT22;4594;50.994;7.126;2023-07-20T03:10:09;19.60;36.60
9118;DHT22;4594;50.994;7.126;2023-07-20T03:12:35;19.60;36.70
9118;DHT22;4594;50.994;7.126;2023-07-20T03:15:02;19.60;36.80
9118;DHT22;4594;50.994;7.126;2023-07-20T03:17:28;19.60;36.80
9118;DHT22;4594;50.994;7.126;2023-07-20T03:19:54;19.60;36.80
9118;DHT22;4594;50.994;7.126;2023-07-20T03:22:20;19.70;37.00
9118;DHT22;4594;50.994;7.126;2023-07-20T03:24:46;19.60;37.00
9118;DHT22;4594;50.994;7.126;2023-07-20T03:27:12;19.60;37.00
9118;DHT22;4594;50.994;7.126;2023-07-20T03:29:38;19.60;37.00
9118;DHT22;4594;50.994;7.126;2023-07-20T03:32:04;19.70;37.00
9118;DHT22;4594;50.994;7.126;2023-07-20T03:34:30;19.70;37.00
9118;DHT22;4594;50.994;7.126;2023-07-20T03:36:56;19.70;37.00
9118;DHT22;4594;50.994;7.126;2023-07-20T03:39:22;19.70;37.00
9118;DHT22;4594;50.994;7.126;2023-07-20T03:41:48;19.70;37.10
9118;DHT22;4594;50.994;7.126;2023-07-20T03:44:14;19.70;37.10
9118;DHT22;4594;50.994;7.126;2023-07-20T03:46:39;19.70;37.20
9118;DHT22;4594;50.994;7.126;2023-07-20T03:49:05;19.80;37.20
9118;DHT22;4594;50.994;7.126;2023-07-20T03:51:32;19.70;37.10
9118;DHT22;4594;50.994;7.126;2023-07-20T03:53:57;19.80;37.30
9118;DHT22;4594;50.994;7.126;2023-07-20T03:56:23;19.80;37.30
9118;DHT22;4594;50.994;7.126;2023-07-20T03:58:49;19.80;37.30
9118;DHT22;4594;50.994;7.126;2023-07-20T04:01:15;19.80;37.30
9118;DHT22;4594;50.994;7.126;2023-07-20T04:03:42;19.80;37.30
9118;DHT22;4594;50.994;7.126;2023-07-20T04:06:08;19.80;37.40
9118;DHT22;4594;50.994;7.126;2023-07-20T04:08:35;19.80;37.40
9118;DHT22;4594;50.994;7.126;2023-07-20T04:11:02;19.80;37.40
9118;DHT22;4594;50.994;7.126;2023-07-20T04:13:28;19.90;37.50
9118;DHT22;4594;50.994;7.126;2023-07-20T04:15:54;19.90;37.50
9118;DHT22;4594;50.994;7.126;2023-07-20T04:18:20;19.90;37.50
9118;DHT22;4594;50.994;7.126;2023-07-20T04:20:46;20.00;37.60
9118;DHT22;4594;50.994;7.126;2023-07-20T04:23:12;20.10;37.70
9118;DHT22;4594;50.994;7.126;2023-07-20T04:25:39;20.00;37.60
9118;DHT22;4594;50.994;7.126;2023-07-20T04:28:06;20.00;37.60
9118;DHT22;4594;50.994;7.126;2023-07-20T04:30:36;20.10;37.70
9118;DHT22;4594;50.994;7.126;2023-07-20T04:33:06;20.00;37.60
9118;DHT22;4594;50.994;7.126;2023-07-20T04:35:53;20.10;37.80
9118;DHT22;4594;50.994;7.126;2023-07-20T04:38:20;20.10;38.00
9118;DHT22;4594;50.994;7.126;2023-07-20T04:40:49;20.10;37.60
9118;DHT22;4594;50.994;7.126;2023-07-20T04:43:16;20.20;37.80
9118;DHT22;4594;50.994;7.126;2023-07-20T04:45:43;20.20;37.70
9118;DHT22;4594;50.994;7.126;2023-07-20T04:48:10;20.20;38.00
9118;DHT22;4594;50.994;7.126;2023-07-20T04:50:38;20.20;37.80
9118;DHT22;4594;50.994;7.126;2023-07-20T04:53:05;20.30;37.90
9118;DHT22;4594;50.994;7.126;2023-07-20T04:55:31;20.30;37.80
9118;DHT22;4594;50.994;7.126;2023-07-20T04:58:00;20.30;37.80
9118;DHT22;4594;50.994;7.126;2023-07-20T05:00:26;20.40;37.90
9118;DHT22;4594;50.994;7.126;2023-07-20T05:02:52;20.40;37.90
9118;DHT22;4594;50.994;7.126;2023-07-20T05:05:18;20.40;37.90
9118;DHT22;4594;50.994;7.126;2023-07-20T05:07:44;20.50;38.00
9118;DHT22;4594;50.994;7.126;2023-07-20T05:10:10;20.50;37.90
9118;DHT22;4594;50.994;7.126;2023-07-20T05:12:36;20.60;38.10
9118;DHT22;4594;50.994;7.126;2023-07-20T05:15:03;20.70;38.10
9118;DHT22;4594;50.994;7.126;2023-07-20T05:17:29;20.70;38.10
9118;DHT22;4594;50.994;7.126;2023-07-20T05:19:55;20.70;38.10
9118;DHT22;4594;50.994;7.126;2023-07-20T05:22:20;20.70;38.00
9118;DHT22;4594;50.994;7.126;2023-07-20T05:24:46;20.80;38.10
9118;DHT22;4594;50.994;7.126;2023-07-20T05:27:12;20.80;38.00
9118;DHT22;4594;50.994;7.126;2023-07-20T05:29:38;20.80;38.00
9118;DHT22;4594;50.994;7.126;2023-07-20T05:32:09;20.90;38.00
9118;DHT22;4594;50.994;7.126;2023-07-20T05:34:35;20.90;38.00
9118;DHT22;4594;50.994;7.126;2023-07-20T05:37:01;20.90;38.00
9118;DHT22;4594;50.994;7.126;2023-07-20T05:39:26;20.90;37.90
9118;DHT22;4594;50.994;7.126;2023-07-20T05:41:52;20.90;38.00
9118;DHT22;4594;50.994;7.126;2023-07-20T05:44:18;20.90;38.00
9118;DHT22;4594;50.994;7.126;2023-07-20T05:46:43;20.90;38.00
9118;DHT22;4594;50.994;7.126;2023-07-20T05:49:09;21.00;38.10
9118;DHT22;4594;50.994;7.126;2023-07-20T05:51:35;21.00;38.10
9118;DHT22;4594;50.994;7.126;2023-07-20T05:54:01;21.00;38.20
9118;DHT22;4594;50.994;7.126;2023-07-20T05:56:27;21.10;38.30
9118;DHT22;4594;50.994;7.126;2023-07-20T05:58:53;21.10;38.30
9118;DHT22;4594;50.994;7.126;2023-07-20T06:01:18;21.20;38.40
9118;DHT22;4594;50.994;7.126;2023-07-20T06:03:44;21.20;38.40
9118;DHT22;4594;50.994;7.126;2023-07-20T06:06:10;21.30;38.40
9118;DHT22;4594;50.994;7.126;2023-07-20T06:08:37;21.40;38.50
9118;DHT22;4594;50.994;7.126;2023-07-20T06:11:03;21.50;38.60
9118;DHT22;4594;50.994;7.126;2023-07-20T06:13:29;21.50;38.80
9118;DHT22;4594;50.994;7.126;2023-07-20T06:15:55;21.60;38.50
9118;DHT22;4594;50.994;7.126;2023-07-20T06:18:24;21.70;38.60
9118;DHT22;4594;50.994;7.126;2023-07-20T06:20:51;21.70;38.50
9118;DHT22;4594;50.994;7.126;2023-07-20T06:23:19;21.80;38.50
9118;DHT22;4594;50.994;7.126;2023-07-20T06:25:45;21.90;38.60
9118;DHT22;4594;50.994;7.126;2023-07-20T06:28:11;21.90;38.40
9118;DHT22;4594;50.994;7.126;2023-07-20T06:30:37;21.90;38.40
9118;DHT22;4594;50.994;7.126;2023-07-20T06:33:02;22.00;38.40
9118;DHT22;4594;50.994;7.126;2023-07-20T06:35:28;22.00;38.30
9118;DHT22;4594;50.994;7.126;2023-07-20T06:37:54;22.00;38.30
9118;DHT22;4594;50.994;7.126;2023-07-20T06:40:20;22.00;38.30
9118;DHT22;4594;50.994;7.126;2023-07-20T06:42:46;22.00;38.40
9118;DHT22;4594;50.994;7.126;2023-07-20T06:45:12;22.20;38.60
9118;DHT22;4594;50.994;7.126;2023-07-20T06:47:39;22.20;38.60
9118;DHT22;4594;50.994;7.126;2023-07-20T06:50:08;22.30;39.00
9118;DHT22;4594;50.994;7.126;2023-07-20T06:52:36;22.50;39.20
9118;DHT22;4594;50.994;7.126;2023-07-20T06:55:03;22.80;39.30
9118;DHT22;4594;50.994;7.126;2023-07-20T06:57:29;23.00;39.20
9118;DHT22;4594;50.994;7.126;2023-07-20T06:59:54;23.10;39.10
9118;DHT22;4594;50.994;7.126;2023-07-20T07:02:20;23.30;39.00
9118;DHT22;4594;50.994;7.126;2023-07-20T07:04:46;23.40;38.90
9118;DHT22;4594;50.994;7.126;2023-07-20T07:07:14;23.50;38.80
9118;DHT22;4594;50.994;7.126;2023-07-20T07:09:41;23.70;38.80
9118;DHT22;4594;50.994;7.126;2023-07-20T07:12:07;23.80;38.90
9118;DHT22;4594;50.994;7.126;2023-07-20T07:14:33;23.90;38.80
9118;DHT22;4594;50.994;7.126;2023-07-20T07:17:00;24.00;38.80
9118;DHT22;4594;50.994;7.126;2023-07-20T07:19:26;24.10;38.80
9118;DHT22;4594;50.994;7.126;2023-07-20T07:21:52;24.30;39.10
9118;DHT22;4594;50.994;7.126;2023-07-20T07:24:17;24.50;39.10
9118;DHT22;4594;50.994;7.126;2023-07-20T07:26:43;24.70;39.20
9118;DHT22;4594;50.994;7.126;2023-07-20T07:29:09;24.90;39.10
9118;DHT22;4594;50.994;7.126;2023-07-20T07:31:35;25.10;38.80
9118;DHT22;4594;50.994;7.126;2023-07-20T07:34:02;25.30;38.60
9118;DHT22;4594;50.994;7.126;2023-07-20T07:36:28;25.40;38.50
9118;DHT22;4594;50.994;7.126;2023-07-20T07:38:54;25.50;38.40
9118;DHT22;4594;50.994;7.126;2023-07-20T07:41:19;25.60;38.40
9118;DHT22;4594;50.994;7.126;2023-07-20T07:43:46;25.70;38.30
9118;DHT22;4594;50.994;7.126;2023-07-20T07:46:11;25.80;38.20
9118;DHT22;4594;50.994;7.126;2023-07-20T07:48:37;25.90;38.30
9118;DHT22;4594;50.994;7.126;2023-07-20T07:51:03;26.20;38.60
9118;DHT22;4594;50.994;7.126;2023-07-20T07:53:29;26.40;38.30
9118;DHT22;4594;50.994;7.126;2023-07-20T07:55:54;26.60;38.10
9118;DHT22;4594;50.994;7.126;2023-07-20T07:58:21;26.60;37.70
9118;DHT22;4594;50.994;7.126;2023-07-20T08:00:46;26.70;37.40
9118;DHT22;4594;50.994;7.126;2023-07-20T08:03:13;26.70;37.20
9118;DHT22;4594;50.994;7.126;2023-07-20T08:05:39;26.60;37.30
9118;DHT22;4594;50.994;7.126;2023-07-20T08:08:04;26.70;37.60
9118;DHT22;4594;50.994;7.126;2023-07-20T08:10:31;26.90;38.20
9118;DHT22;4594;50.994;7.126;2023-07-20T08:12:57;27.30;38.60
9118;DHT22;4594;50.994;7.126;2023-07-20T08:15:23;27.80;38.70
9118;DHT22;4594;50.994;7.126;2023-07-20T08:17:48;28.40;38.90
9118;DHT22;4594;50.994;7.126;2023-07-20T08:20:17;29.00;38.80
9118;DHT22;4594;50.994;7.126;2023-07-20T08:22:43;29.50;38.20
9118;DHT22;4594;50.994;7.126;2023-07-20T08:25:09;29.90;38.10
9118;DHT22;4594;50.994;7.126;2023-07-20T08:27:36;30.40;37.80
9118;DHT22;4594;50.994;7.126;2023-07-20T08:30:02;30.80;37.40
9118;DHT22;4594;50.994;7.126;2023-07-20T08:32:29;31.10;37.30
9118;DHT22;4594;50.994;7.126;2023-07-20T08:34:55;31.40;37.30
9118;DHT22;4594;50.994;7.126;2023-07-20T08:37:21;31.80;37.40
9118;DHT22;4594;50.994;7.126;2023-07-20T08:39:47;32.20;37.20
9118;DHT22;4594;50.994;7.126;2023-07-20T08:42:14;32.70;37.30
9118;DHT22;4594;50.994;7.126;2023-07-20T08:44:41;33.20;37.00
9118;DHT22;4594;50.994;7.126;2023-07-20T08:47:10;33.60;36.60
9118;DHT22;4594;50.994;7.126;2023-07-20T08:49:39;34.00;36.20
9118;DHT22;4594;50.994;7.126;2023-07-20T08:52:06;34.20;36.00
9118;DHT22;4594;50.994;7.126;2023-07-20T08:54:33;34.40;35.50
9118;DHT22;4594;50.994;7.126;2023-07-20T08:57:04;34.70;35.40
9118;DHT22;4594;50.994;7.126;2023-07-20T08:59:31;35.00;34.90
9118;DHT22;4594;50.994;7.126;2023-07-20T09:01:59;35.30;35.30
9118;DHT22;4594;50.994;7.126;2023-07-20T09:04:25;35.70;35.30
9118;DHT22;4594;50.994;7.126;2023-07-20T09:06:51;36.10;35.30
9118;DHT22;4594;50.994;7.126;2023-07-20T09:09:17;36.50;35.20
9118;DHT22;4594;50.994;7.126;2023-07-20T09:11:46;36.90;34.80
9118;DHT22;4594;50.994;7.126;2023-07-20T09:14:13;37.20;34.30
9118;DHT22;4594;50.994;7.126;2023-07-20T09:16:55;37.30;33.90
9118;DHT22;4594;50.994;7.126;2023-07-20T09:19:22;37.30;33.00
9118;DHT22;4594;50.994;7.126;2023-07-20T09:21:51;37.10;32.90
9118;DHT22;4594;50.994;7.126;2023-07-20T09:24:18;37.00;32.50
9118;DHT22;4594;50.994;7.126;2023-07-20T09:26:47;36.80;32.60
9118;DHT22;4594;50.994;7.126;2023-07-20T09:29:14;36.60;32.30
9118;DHT22;4594;50.994;7.126;2023-07-20T09:31:44;36.30;32.20
9118;DHT22;4594;50.994;7.126;2023-07-20T09:34:24;36.10;32.40
9118;DHT22;4594;50.994;7.126;2023-07-20T09:36:51;36.00;32.70
9118;DHT22;4594;50.994;7.126;2023-07-20T09:39:17;36.10;32.80
9118;DHT22;4594;50.994;7.126;2023-07-20T09:41:43;36.20;32.90
9118;DHT22;4594;50.994;7.126;2023-07-20T09:44:10;36.40;32.70
9118;DHT22;4594;50.994;7.126;2023-07-20T09:46:49;36.40;32.30
9118;DHT22;4594;50.994;7.126;2023-07-20T09:49:17;36.50;31.70
9118;DHT22;4594;50.994;7.126;2023-07-20T09:51:44;36.50;31.90
9118;DHT22;4594;50.994;7.126;2023-07-20T09:54:12;36.40;31.60
9118;DHT22;4594;50.994;7.126;2023-07-20T09:56:39;36.30;31.60
9118;DHT22;4594;50.994;7.126;2023-07-20T09:59:06;36.20;31.50
9118;DHT22;4594;50.994;7.126;2023-07-20T10:01:32;36.10;31.60
9118;DHT22;4594;50.994;7.126;2023-07-20T10:04:02;36.00;31.40
9118;DHT22;4594;50.994;7.126;2023-07-20T10:06:32;35.80;31.00
9118;DHT22;4594;50.994;7.126;2023-07-20T10:09:02;35.70;31.00
9118;DHT22;4594;50.994;7.126;2023-07-20T10:11:35;35.60;31.20
9118;DHT22;4594;50.994;7.126;2023-07-20T10:14:04;35.50;30.80
9118;DHT22;4594;50.994;7.126;2023-07-20T10:16:35;35.30;30.90
9118;DHT22;4594;50.994;7.126;2023-07-20T10:19:27;35.20;30.70
9118;DHT22;4594;50.994;7.126;2023-07-20T10:22:10;35.00;30.70
9118;DHT22;4594;50.994;7.126;2023-07-20T10:24:39;34.90;30.70
9118;DHT22;4594;50.994;7.126;2023-07-20T10:27:06;34.80;30.60
9118;DHT22;4594;50.994;7.126;2023-07-20T10:29:32;34.70;30.50
9118;DHT22;4594;50.994;7.126;2023-07-20T10:32:00;34.50;30.30
9118;DHT22;4594;50.994;7.126;2023-07-20T10:34:26;34.30;30.40
9118;DHT22;4594;50.994;7.126;2023-07-20T10:36:53;34.20;30.30
9118;DHT22;4594;50.994;7.126;2023-07-20T10:39:24;34.00;30.20
9118;DHT22;4594;50.994;7.126;2023-07-20T10:42:10;33.80;30.20
9118;DHT22;4594;50.994;7.126;2023-07-20T10:44:40;33.70;30.10
9118;DHT22;4594;50.994;7.126;2023-07-20T10:47:10;33.70;30.20
9118;DHT22;4594;50.994;7.126;2023-07-20T10:49:57;33.60;30.20
9118;DHT22;4594;50.994;7.126;2023-07-20T10:52:25;33.60;30.00
9118;DHT22;4594;50.994;7.126;2023-07-20T10:54:51;33.60;30.30
9118;DHT22;4594;50.994;7.126;2023-07-20T10:57:31;33.60;30.20
9118;DHT22;4594;50.994;7.126;2023-07-20T11:00:08;33.50;30.00
9118;DHT22;4594;50.994;7.126;2023-07-20T11:02:46;33.40;29.80
9118;DHT22;4594;50.994;7.126;2023-07-20T11:05:32;33.30;29.80
9118;DHT22;4594;50.994;7.126;2023-07-20T11:08:06;33.00;29.60
9118;DHT22;4594;50.994;7.126;2023-07-20T11:10:36;32.80;30.00
9118;DHT22;4594;50.994;7.126;2023-07-20T11:13:21;32.70;29.90
9118;DHT22;4594;50.994;7.126;2023-07-20T11:18:25;32.60;29.90
9118;DHT22;4594;50.994;7.126;2023-07-20T11:20:53;32.60;30.00
9118;DHT22;4594;50.994;7.126;2023-07-20T11:23:22;32.70;30.00
9118;DHT22;4594;50.994;7.126;2023-07-20T11:25:49;32.80;30.00
9118;DHT22;4594;50.994;7.126;2023-07-20T11:28:15;32.80;30.00
9118;DHT22;4594;50.994;7.126;2023-07-20T11:30:41;32.90;30.00
9118;DHT22;4594;50.994;7.126;2023-07-20T11:33:10;33.00;30.00
9118;DHT22;4594;50.994;7.126;2023-07-20T11:35:42;33.10;30.00
9118;DHT22;4594;50.994;7.126;2023-07-20T11:38:09;33.10;29.70
9118;DHT22;4594;50.994;7.126;2023-07-20T11:40:35;33.10;29.80
9118;DHT22;4594;50.994;7.126;2023-07-20T11:43:01;33.10;29.70
9118;DHT22;4594;50.994;7.126;2023-07-20T11:45:28;33.00;29.60
9118;DHT22;4594;50.994;7.126;2023-07-20T11:47:58;32.90;29.40
9118;DHT22;4594;50.994;7.126;2023-07-20T11:50:25;32.70;29.40
9118;DHT22;4594;50.994;7.126;2023-07-20T11:52:51;32.60;29.50
9118;DHT22;4594;50.994;7.126;2023-07-20T11:55:17;32.40;29.40
9118;DHT22;4594;50.994;7.126;2023-07-20T11:58:09;32.30;29.40
9118;DHT22;4594;50.994;7.126;2023-07-20T12:00:38;32.10;29.30
9118;DHT22;4594;50.994;7.126;2023-07-20T12:03:06;32.00;29.30
9118;DHT22;4594;50.994;7.126;2023-07-20T12:05:33;31.90;29.40
9118;DHT22;4594;50.994;7.126;2023-07-20T12:07:59;31.80;29.40
9118;DHT22;4594;50.994;7.126;2023-07-20T12:10:26;31.70;29.30
9118;DHT22;4594;50.994;7.126;2023-07-20T12:12:54;31.60;29.30
9118;DHT22;4594;50.994;7.126;2023-07-20T12:15:21;31.50;29.30
9118;DHT22;4594;50.994;7.126;2023-07-20T12:17:53;31.40;29.30
9118;DHT22;4594;50.994;7.126;2023-07-20T12:23:00;31.20;29.20
9118;DHT22;4594;50.994;7.126;2023-07-20T12:25:40;31.00;29.20
9118;DHT22;4594;50.994;7.126;2023-07-20T12:28:17;30.90;29.20
9118;DHT22;4594;50.994;7.126;2023-07-20T12:30:46;30.70;29.20
9118;DHT22;4594;50.994;7.126;2023-07-20T12:33:12;30.50;29.10
9118;DHT22;4594;50.994;7.126;2023-07-20T12:35:41;30.30;29.00
9118;DHT22;4594;50.994;7.126;2023-07-20T12:38:08;30.20;29.10
9118;DHT22;4594;50.994;7.126;2023-07-20T12:40:34;30.00;29.10
9118;DHT22;4594;50.994;7.126;2023-07-20T12:43:00;29.70;29.00
9118;DHT22;4594;50.994;7.126;2023-07-20T12:45:26;29.50;29.00
9118;DHT22;4594;50.994;7.126;2023-07-20T12:47:52;29.40;29.10
9118;DHT22;4594;50.994;7.126;2023-07-20T12:50:18;29.20;29.10
9118;DHT22;4594;50.994;7.126;2023-07-20T12:52:43;29.10;29.10
9118;DHT22;4594;50.994;7.126;2023-07-20T12:55:09;28.90;29.10
9118;DHT22;4594;50.994;7.126;2023-07-20T12:57:36;28.80;29.20
9118;DHT22;4594;50.994;7.126;2023-07-20T13:00:07;28.70;29.20
9118;DHT22;4594;50.994;7.126;2023-07-20T13:02:34;28.50;29.10
9118;DHT22;4594;50.994;7.126;2023-07-20T13:05:02;28.40;29.10
9118;DHT22;4594;50.994;7.126;2023-07-20T13:07:33;28.30;29.20
9118;DHT22;4594;50.994;7.126;2023-07-20T13:10:01;28.20;29.30
9118;DHT22;4594;50.994;7.126;2023-07-20T13:12:28;28.10;29.30
9118;DHT22;4594;50.994;7.126;2023-07-20T13:14:56;28.10;29.40
9118;DHT22;4594;50.994;7.126;2023-07-20T13:17:22;28.00;29.30
9118;DHT22;4594;50.994;7.126;2023-07-20T13:19:48;27.90;29.30
9118;DHT22;4594;50.994;7.126;2023-07-20T13:22:14;27.90;29.30
9118;DHT22;4594;50.994;7.126;2023-07-20T13:24:40;27.90;29.30
9118;DHT22;4594;50.994;7.126;2023-07-20T13:27:07;27.80;29.30
9118;DHT22;4594;50.994;7.126;2023-07-20T13:29:32;27.80;29.30
9118;DHT22;4594;50.994;7.126;2023-07-20T13:31:58;27.80;29.30
9118;DHT22;4594;50.994;7.126;2023-07-20T13:34:25;27.80;29.30
9118;DHT22;4594;50.994;7.126;2023-07-20T13:36:51;27.90;29.40
9118;DHT22;4594;50.994;7.126;2023-07-20T13:39:17;27.90;29.40
9118;DHT22;4594;50.994;7.126;2023-07-20T13:41:44;28.00;29.40
9118;DHT22;4594;50.994;7.126;2023-07-20T13:44:10;28.00;29.40
9118;DHT22;4594;50.994;7.126;2023-07-20T13:46:36;28.00;29.40
9118;DHT22;4594;50.994;7.126;2023-07-20T13:49:01;28.10;29.40
9118;DHT22;4594;50.994;7.126;2023-07-20T13:51:27;28.10;29.40
9118;DHT22;4594;50.994;7.126;2023-07-20T13:53:53;28.20;29.40
9118;DHT22;4594;50.994;7.126;2023-07-20T13:56:19;28.20;29.40
9118;DHT22;4594;50.994;7.126;2023-07-20T13:58:44;28.30;29.40
9118;DHT22;4594;50.994;7.126;2023-07-20T14:01:10;28.30;29.40
9118;DHT22;4594;50.994;7.126;2023-07-20T14:03:36;28.40;29.40
9118;DHT22;4594;50.994;7.126;2023-07-20T14:06:02;28.40;29.40
9118;DHT22;4594;50.994;7.126;2023-07-20T14:08:28;28.50;29.40
9118;DHT22;4594;50.994;7.126;2023-07-20T14:10:55;28.60;29.40
9118;DHT22;4594;50.994;7.126;2023-07-20T14:13:21;28.60;29.40
9118;DHT22;4594;50.994;7.126;2023-07-20T14:15:46;28.70;29.40
9118;DHT22;4594;50.994;7.126;2023-07-20T14:18:12;28.70;29.30
9118;DHT22;4594;50.994;7.126;2023-07-20T14:20:38;28.80;29.30
9118;DHT22;4594;50.994;7.126;2023-07-20T14:23:04;28.80;29.30
9118;DHT22;4594;50.994;7.126;2023-07-20T14:25:29;28.80;29.30
9118;DHT22;4594;50.994;7.126;2023-07-20T14:27:55;28.90;29.30
9118;DHT22;4594;50.994;7.126;2023-07-20T14:30:20;28.90;29.30
9118;DHT22;4594;50.994;7.126;2023-07-20T14:32:46;28.90;29.20
9118;DHT22;4594;50.994;7.126;2023-07-20T14:35:12;28.90;29.20
9118;DHT22;4594;50.994;7.126;2023-07-20T14:37:37;28.90;29.20
9118;DHT22;4594;50.994;7.126;2023-07-20T14:40:03;28.80;29.10
9118;DHT22;4594;50.994;7.126;2023-07-20T14:42:30;28.80;29.10
9118;DHT22;4594;50.994;7.126;2023-07-20T14:44:57;28.70;29.00
9118;DHT22;4594;50.994;7.126;2023-07-20T14:47:23;28.70;29.00
9118;DHT22;4594;50.994;7.126;2023-07-20T14:49:49;28.60;29.00
9118;DHT22;4594;50.994;7.126;2023-07-20T14:52:15;28.50;28.90
9118;DHT22;4594;50.994;7.126;2023-07-20T14:54:41;28.40;28.90
9118;DHT22;4594;50.994;7.126;2023-07-20T14:57:07;28.30;29.00
9118;DHT22;4594;50.994;7.126;2023-07-20T14:59:39;28.20;29.00
9118;DHT22;4594;50.994;7.126;2023-07-20T15:02:07;28.10;29.00
9118;DHT22;4594;50.994;7.126;2023-07-20T15:04:33;28.10;29.00
9118;DHT22;4594;50.994;7.126;2023-07-20T15:06:59;28.00;29.00
9118;DHT22;4594;50.994;7.126;2023-07-20T15:09:25;27.90;28.90
9118;DHT22;4594;50.994;7.126;2023-07-20T15:11:50;27.80;28.90
9118;DHT22;4594;50.994;7.126;2023-07-20T15:14:16;27.80;28.90
9118;DHT22;4594;50.994;7.126;2023-07-20T15:16:42;27.70;29.00
9118;DHT22;4594;50.994;7.126;2023-07-20T15:19:09;27.70;29.00
9118;DHT22;4594;50.994;7.126;2023-07-20T15:21:35;27.60;29.00
9118;DHT22;4594;50.994;7.126;2023-07-20T15:24:00;27.60;29.00
9118;DHT22;4594;50.994;7.126;2023-07-20T15:26:26;27.50;29.00
9118;DHT22;4594;50.994;7.126;2023-07-20T15:28:52;27.50;29.10
9118;DHT22;4594;50.994;7.126;2023-07-20T15:31:17;27.40;29.10
9118;DHT22;4594;50.994;7.126;2023-07-20T15:33:43;27.30;29.10
9118;DHT22;4594;50.994;7.126;2023-07-20T15:36:09;27.30;29.10
9118;DHT22;4594;50.994;7.126;2023-07-20T15:38:34;27.30;29.10
9118;DHT22;4594;50.994;7.126;2023-07-20T15:41:00;27.20;29.10
9118;DHT22;4594;50.994;7.126;2023-07-20T15:43:27;27.20;29.20
9118;DHT22;4594;50.994;7.126;2023-07-20T15:46:02;27.10;29.20
9118;DHT22;4594;50.994;7.126;2023-07-20T15:48:51;27.10;29.30
9118;DHT22;4594;50.994;7.126;2023-07-20T15:51:17;27.00;29.20
9118;DHT22;4594;50.994;7.126;2023-07-20T15:53:42;27.00;29.20
9118;DHT22;4594;50.994;7.126;2023-07-20T15:56:08;26.90;29.30
9118;DHT22;4594;50.994;7.126;2023-07-20T15:58:34;26.80;29.20
9118;DHT22;4594;50.994;7.126;2023-07-20T16:00:59;26.80;29.30
9118;DHT22;4594;50.994;7.126;2023-07-20T16:03:25;26.70;29.20
9118;DHT22;4594;50.994;7.126;2023-07-20T16:05:52;26.70;29.30
9118;DHT22;4594;50.994;7.126;2023-07-20T16:08:18;26.60;29.30
9118;DHT22;4594;50.994;7.126;2023-07-20T16:10:44;26.60;29.40
9118;DHT22;4594;50.994;7.126;2023-07-20T16:13:10;26.50;29.40
9118;DHT22;4594;50.994;7.126;2023-07-20T16:15:36;26.50;29.40
9118;DHT22;4594;50.994;7.126;2023-07-20T16:18:02;26.40;29.30